Flight Track Log - Related Links

Times and Time Zones

All times are in EDT time to prevent confusion due to time zone crossing. See the SWA494 flight status page for this flight to view local times or setup timezone preferences in your user account.

Time Position Orientation Groundspeed Altitude Reporting Facility
EDT Latitude Longitude Course Direction KTS MPH feet Rate Location/Type
Sun 03:20:38 PM 33.8833 -118.4833 90° East 240 276 2,500  Level Southern California TRACON
Sun 03:21:54 PM 33.8083 -118.5011 191° South 265 305 5,200 2,460 Climbing Los Angeles Center
Sun 03:22:57 PM 33.7122 -118.5075 183° South 299 344 8,200 2,640 Climbing Los Angeles Center
Sun 03:23:59 PM 33.6725 -118.4181 118° Southeast 313 360 10,700 2,194 Climbing Los Angeles Center
Sun 03:25:00 PM 33.6333 -118.2344 90° East  Level FlightAware Approximate
Sun 03:25:00 PM 33.6334 -118.2793 90° East  Level FlightAware Approximate
Sun 03:26:03 PM 33.6442 -118.1847 90° East 378 435 15,000  Level Los Angeles Center
Sun 03:27:05 PM 33.6439 -118.0325 90° East 383 441 16,100 1,839 Climbing Los Angeles Center
Sun 03:28:07 PM 33.6433 -117.9033 90° East 388 447 18,800 2,419 Climbing Los Angeles Center
Sun 03:29:09 PM 33.6431 -117.7672 90° East 406 467 21,100 2,226 Climbing Los Angeles Center
Sun 03:30:11 PM 33.6422 -117.6231 90° East 428 493 23,400 2,129 Climbing Los Angeles Center
Sun 03:31:13 PM 33.6422 -117.4764 90° East 440 506 25,500 2,064 Climbing Los Angeles Center
Sun 03:32:16 PM 33.6406 -117.2942 91° East 455 524 27,700 1,824 Climbing Los Angeles Center
Sun 03:33:18 PM 33.6394 -117.1372 90° East 469 540 29,300 1,452 Climbing Los Angeles Center
Sun 03:34:20 PM 33.6311 -116.9769 94° East 482 555 30,700 1,790 Climbing Los Angeles Center
Sun 03:35:22 PM 33.6083 -116.7992 99° East 487 560 33,000 2,032 Climbing Los Angeles Center
Sun 03:36:24 PM 33.5878 -116.6439 99° East 475 547 34,900 1,500 Climbing Los Angeles Center
Sun 03:37:26 PM 33.5681 -116.4903 99° East 466 536 36,100 1,016 Climbing Los Angeles Center
Sun 03:38:28 PM 33.5492 -116.3361 98° East 466 536 37,000 435 Climbing Los Angeles Center
Sun 03:39:30 PM 33.5278 -116.1800 99° East 470 541 37,000  Level Los Angeles Center
Sun 03:40:33 PM 33.5081 -116.0250 99° East 469 540 37,000  Level Los Angeles Center
Sun 03:41:35 PM 33.4861 -115.8714 100° East 467 537 37,000  Level Los Angeles Center
Sun 03:42:37 PM 33.4617 -115.6875 99° East 466 536 37,000  Level Los Angeles Center
Sun 03:43:39 PM 33.4439 -115.5333 98° East 466 536 37,000  Level Los Angeles Center
Sun 03:44:53 PM 33.4272 -115.3475 96° East 467 537 37,000  Level Los Angeles Center
Sun 03:45:56 PM 33.4139 -115.1928 96° East 469 540 37,000  Level Los Angeles Center
Sun 03:46:58 PM 33.3992 -115.0358 96° East 473 544 37,000  Level Los Angeles Center
Sun 03:48:00 PM 33.3853 -114.8778 96° East 479 551 37,000  Level Los Angeles Center
Sun 03:50:04 PM 33.3522 -114.5317 96° East 476 548 37,000  Level Los Angeles Center
Sun 03:50:19 PM 33.3511 -114.4850 92° East 477 549 37,000  Level Albuquerque Center
Sun 03:51:21 PM 33.3364 -114.3289 96° East 474 545 37,000  Level Albuquerque Center
Sun 03:52:23 PM 33.3192 -114.1722 97° East 475 547 37,000  Level Albuquerque Center
Sun 03:53:24 PM 33.3039 -114.0147 97° East 476 548 37,000  Level Albuquerque Center
Sun 03:54:26 PM 33.2875 -113.8575 97° East 475 547 37,000  Level Albuquerque Center
Sun 03:55:28 PM 33.2711 -113.7014 97° East 475 547 37,000  Level Albuquerque Center
Sun 03:56:30 PM 33.2733 -113.5433 89° East 477 549 37,000  Level Albuquerque Center
Sun 03:57:32 PM 33.2731 -113.3508 90° East 485 558 37,000  Level Albuquerque Center
Sun 03:58:34 PM 33.2553 -113.1908 98° East 487 560 37,000  Level Albuquerque Center
Sun 03:59:36 PM 33.2381 -113.0306 97° East 486 559 37,000  Level Albuquerque Center
Sun 04:00:38 PM 33.2197 -112.8708 98° East 485 558 37,000  Level Albuquerque Center
Sun 04:01:40 PM 33.2019 -112.7122 98° East 482 555 37,000  Level Albuquerque Center
Sun 04:02:42 PM 33.1836 -112.5619 98° East 479 551 37,000  Level Albuquerque Center
Sun 04:03:44 PM 33.1622 -112.3731 98° East 481 554 37,000  Level Albuquerque Center
Sun 04:04:46 PM 33.1442 -112.2167 98° East 480 552 37,000  Level Albuquerque Center
Sun 04:05:48 PM 33.1258 -112.0611 98° East 478 550 37,000 97 Level Albuquerque Center
Sun 04:06:50 PM 33.1072 -111.9056 98° East 477 549 37,200 677 Climbing Albuquerque Center
Sun 04:07:52 PM 33.0883 -111.7467 98° East 485 558 38,400 871 Climbing Albuquerque Center
Sun 04:08:54 PM 33.0656 -111.5597 98° East 480 552 39,000 290 Climbing Albuquerque Center
Sun 04:09:56 PM 33.0461 -111.4028 98° East 481 554 39,000  Level Albuquerque Center
Sun 04:10:58 PM 33.0256 -111.2481 99° East 477 549 39,000  Level Albuquerque Center
Sun 04:12:00 PM 33.0064 -111.0911 98° East 480 552 39,000  Level Albuquerque Center
Sun 04:13:02 PM 32.9864 -110.9336 99° East 483 556 39,000  Level Albuquerque Center
Sun 04:14:04 PM 32.9631 -110.7469 98° East 479 551 39,000  Level Albuquerque Center
Sun 04:15:06 PM 32.9442 -110.6081 99° East 479 551 39,000  Level Albuquerque Center
Sun 04:16:08 PM 32.9242 -110.4536 99° East 476 548 39,000  Level Albuquerque Center
Sun 04:17:10 PM 32.9000 -110.2689 99° East 476 548 39,000  Level Albuquerque Center
Sun 04:18:12 PM 32.8783 -110.1156 100° East 476 548 39,000  Level Albuquerque Center
Sun 04:19:14 PM 32.8547 -109.9603 100° East 482 555 39,000  Level Albuquerque Center
Sun 04:20:16 PM 32.8331 -109.8053 99° East 482 555 39,000  Level Albuquerque Center
Sun 04:21:18 PM 32.8083 -109.6203 99° East 480 552 39,000  Level Albuquerque Center
Sun 04:22:20 PM 32.7864 -109.4667 100° East 479 551 39,000  Level Albuquerque Center
Sun 04:23:22 PM 32.7650 -109.3131 99° East 479 551 39,000  Level Albuquerque Center
Sun 04:24:24 PM 32.7433 -109.1628 100° East 475 547 39,000  Level Albuquerque Center
Sun 04:25:26 PM 32.7236 -109.0064 98° East 476 548 39,000  Level Albuquerque Center
Sun 04:26:28 PM 32.6933 -108.8200 101° East 478 550 39,000  Level Albuquerque Center
Sun 04:27:30 PM 32.6714 -108.6733 100° East 484 557 39,000  Level Albuquerque Center
Sun 04:28:32 PM 32.6497 -108.5208 100° East 478 550 39,000  Level Albuquerque Center
Sun 04:29:34 PM 32.6214 -108.3369 100° East 479 551 39,000  Level Albuquerque Center
Sun 04:30:36 PM 32.5989 -108.1847 100° East 476 548 39,000  Level Albuquerque Center
Sun 04:31:38 PM 32.5753 -108.0331 100° East 473 544 39,000  Level Albuquerque Center
Sun 04:32:40 PM 32.5508 -107.8806 101° East 475 547 39,000  Level Albuquerque Center
Sun 04:33:43 PM 32.5244 -107.7044 100° East 483 556 39,000  Level Albuquerque Center
Sun 04:34:45 PM 32.5008 -107.5511 100° East 479 551 39,000  Level Albuquerque Center
Sun 04:35:47 PM 32.4758 -107.3897 100° East 475 547 39,000  Level Albuquerque Center
Sun 04:36:49 PM 32.4511 -107.2347 101° East 480 552 39,000  Level Albuquerque Center
Sun 04:37:51 PM 32.4253 -107.0564 100° East 487 560 39,000  Level Albuquerque Center
Sun 04:38:53 PM 32.4000 -106.9031 101° East 478 550 39,000  Level Albuquerque Center
Sun 04:39:55 PM 32.3761 -106.7603 101° East 477 549 39,000  Level Albuquerque Center
Sun 04:40:57 PM 32.3503 -106.6069 101° East 477 549 39,000  Level Albuquerque Center
Sun 04:41:59 PM 32.3200 -106.4242 101° East 474 545 39,000  Level Albuquerque Center
Sun 04:43:01 PM 32.2944 -106.2731 101° East 471 542 39,000  Level Albuquerque Center
Sun 04:44:03 PM 32.2689 -106.1214 101° East 476 548 39,000  Level Albuquerque Center
Sun 04:45:05 PM 32.2422 -105.9706 102° East 472 543 39,000  Level Albuquerque Center
Sun 04:46:07 PM 32.2164 -105.8211 102° East 466 536 39,000  Level Albuquerque Center
Sun 04:47:09 PM 32.1906 -105.6711 101° East 466 536 39,000  Level Albuquerque Center
Sun 04:48:11 PM 32.1586 -105.4911 102° East 467 537 39,000  Level Albuquerque Center
Sun 04:49:13 PM 32.1325 -105.3389 101° East 471 542 39,000  Level Albuquerque Center
Sun 04:50:15 PM 32.1067 -105.1903 102° East 465 535 39,000  Level Albuquerque Center
Sun 04:51:17 PM 32.0800 -105.0389 102° East 469 540 39,000  Level Albuquerque Center
Sun 04:52:19 PM 32.0533 -104.8867 102° East 472 543 39,000  Level Albuquerque Center
Sun 04:53:21 PM 32.0258 -104.7361 102° East 471 542 39,000  Level Albuquerque Center
Sun 04:54:23 PM 31.9928 -104.5511 102° East 478 550 39,000  Level Albuquerque Center
Sun 04:55:25 PM 31.9644 -104.3997 102° East 474 545 39,000  Level Albuquerque Center
Sun 04:56:27 PM 31.9353 -104.2422 102° East 485 558 39,000  Level Albuquerque Center
Sun 04:57:29 PM 31.9061 -104.0844 102° East 490 564 39,000  Level Albuquerque Center
Sun 04:58:31 PM 31.8792 -103.9406 102° East 489 563 39,000  Level Albuquerque Center
Sun 04:59:33 PM 31.8494 -103.7736 102° East 487 560 39,000  Level Albuquerque Center
Sun 05:00:35 PM 31.8147 -103.5997 103° East 488 562 39,000  Level Albuquerque Center
Sun 05:01:37 PM 31.7828 -103.4322 103° East 486 559 39,000  Level Albuquerque Center
Sun 05:02:39 PM 31.7531 -103.2797 103° East 482 555 39,000  Level Albuquerque Center
Sun 05:03:41 PM 31.7236 -103.1256 103° East 483 556 39,000  Level Albuquerque Center
Sun 05:04:43 PM 31.6933 -102.9694 103° East 488 562 39,000  Level Albuquerque Center
Sun 05:05:45 PM 31.6617 -102.8133 103° East 490 564 39,000  Level Albuquerque Center
Sun 05:06:47 PM 31.6308 -102.6575 103° East 490 564 39,000  Level Albuquerque Center
Sun 05:07:49 PM 31.5939 -102.4703 103° East 490 564 39,000  Level Albuquerque Center
Sun 05:08:51 PM 31.5628 -102.3153 103° East 485 558 39,000  Level Albuquerque Center
Sun 05:09:53 PM 31.5319 -102.1597 103° East 484 557 39,000  Level Albuquerque Center
Sun 05:10:55 PM 31.4969 -102.0017 105° East 487 560 39,000  Level Albuquerque Center
Sun 05:13:07 PM 31.4294 -101.6661 103° East 483 556 39,000  Level Houston Center
Sun 05:14:09 PM 31.3969 -101.5122 104° East 485 558 39,000  Level Houston Center
Sun 05:16:13 PM 31.3328 -101.2047 104° East 487 560 39,000  Level Houston Center
Sun 05:17:15 PM 31.2992 -101.0450 104° East 490 564 39,000  Level Houston Center
Sun 05:18:17 PM 31.2661 -100.8919 104° East 487 560 39,000  Level Houston Center
Sun 05:19:19 PM 31.2328 -100.7378 104° East 488 562 39,000  Level Houston Center
Sun 05:20:21 PM 31.1928 -100.5517 104° East 490 564 39,000  Level Houston Center
Sun 05:21:23 PM 31.1606 -100.3981 104° East 487 560 39,000  Level Houston Center
Sun 05:22:26 PM 31.1267 -100.2456 105° East 485 558 39,000  Level Houston Center
Sun 05:23:28 PM 31.0922 -100.0919 105° East 486 559 39,000  Level Houston Center
Sun 05:24:30 PM 31.0581 -99.9378 104° East 488 562 39,000  Level Houston Center
Sun 05:25:32 PM 31.0319 -99.7817 101° East 492 566 39,000  Level Houston Center
Sun 05:26:34 PM 31.0064 -99.5917 99° East 494 568 39,000  Level Houston Center
Sun 05:27:36 PM 30.9853 -99.4319 99° East 497 572 39,000  Level Houston Center
Sun 05:28:38 PM 30.9636 -99.2697 99° East 503 579 39,000  Level Houston Center
Sun 05:29:40 PM 30.9406 -99.1069 99° East 501 577 39,000  Level Houston Center
Sun 05:30:42 PM 30.9183 -98.9458 99° East 501 577 39,000  Level Houston Center
Sun 05:31:44 PM 30.8964 -98.7847 99° East 499 574 39,000  Level Houston Center
Sun 05:32:46 PM 30.8736 -98.6250 99° East 498 573 39,000  Level Houston Center
Sun 05:33:49 PM 30.8481 -98.4378 99° East 497 572 39,000  Level Houston Center
Sun 05:34:51 PM 30.8250 -98.2797 100° East 495 570 39,000  Level Houston Center
Sun 05:35:53 PM 30.8028 -98.1200 99° East 497 572 39,000  Level Houston Center
Sun 05:36:55 PM 30.7800 -97.9606 99° East 496 571 39,000  Level Houston Center
Sun 05:37:57 PM 30.7556 -97.8025 100° East 495 570 39,000 -387 Level Houston Center
Sun 05:38:59 PM 30.7322 -97.6439 100° East 497 572 38,200 -968 Descending Houston Center
Sun 05:40:01 PM 30.7033 -97.4611 100° East 493 567 37,000 -1,113 Descending Houston Center
Sun 05:41:03 PM 30.6819 -97.3053 99° East 491 565 35,900 -2,177 Descending Houston Center
Sun 05:42:05 PM 30.6447 -97.1542 106° East 490 564 32,500 -3,435 Descending Houston Center
Sun 05:43:07 PM 30.5781 -97.0097 118° Southeast 506 582 28,800 -3,456 Descending Houston Center
Sun 05:44:10 PM 30.5119 -96.8628 118° Southeast 510 587 25,300 -3,360 Descending Houston Center
Sun 05:45:12 PM 30.4344 -96.6967 118° Southeast 499 574 21,800 -3,097 Descending Houston Center
Sun 05:46:14 PM 30.3717 -96.5614 118° Southeast 475 547 18,900 -2,889 Descending Houston Center
Sun 05:47:00 PM 30.3261 -96.4656 119° Southeast 459 528 16,600 -2,806 Descending Houston Center
Sun 05:47:16 PM 30.3111 -96.4300 116° Southeast 460 529 16,000 -3,070 Descending Houston Center
Sun 05:47:43 PM 30.2800 -96.3667 120° Southeast 440 506 14,400 -2,806 Descending Houston Center
Sun 05:48:18 PM 30.2525 -96.3044 117° Southeast 443 510 13,100 -2,687 Descending Houston Center
Sun 05:48:50 PM 30.2186 -96.2333 119° Southeast 429 494 11,400 -2,032 Descending Houston Center
Sun 05:49:20 PM 30.1847 -96.1969 137° Southeast 410 472 11,000 -429 Descending Houston Center
Sun 05:49:46 PM 30.1356 -96.1703 155° Southeast 388 447 11,000  Level Houston Center
Sun 05:50:22 PM 30.0883 -96.1447 155° Southeast 387 445 11,000  Level Houston Center
Sun 05:50:53 PM 30.0233 -96.1106 156° South 385 443 11,000  Level Houston Center
Sun 05:51:24 PM 29.9908 -96.0914 153° Southeast 385 443 11,000  Level Houston Center
Sun 05:51:54 PM 29.9267 -96.0586 156° South 385 443 11,000  Level Houston Center
Sun 05:52:26 PM 29.8722 -96.0292 155° Southeast 389 448 11,000  Level Houston Center
Sun 05:52:50 PM 29.8342 -96.0092 155° Southeast 389 448 11,000  Level Houston Center
Sun 05:53:28 PM 29.7833 -95.9825 156° South 388 447 11,000  Level Houston Center
Sun 05:53:51 PM 29.7361 -95.9433 144° Southeast 398 458 11,000  Level Houston Center
Sun 05:54:30 PM 29.7008 -95.9025 135° Southeast 389 448 11,000  Level Houston Center
Sun 05:54:52 PM 29.6733 -95.8494 121° Southeast 334 384 11,000 -677 Level Houston Center
Sun 05:55:32 PM 29.6428 -95.7944 123° Southeast 328 377 10,300 -1,161 Descending Houston Center
Sun 05:55:54 PM 29.6258 -95.7636 122° Southeast 316 364 9,800 -1,238 Descending Houston Center
Sun 05:56:35 PM 29.5961 -95.7114 123° Southeast 312 359 9,000 -1,355 Descending Houston Center
Sun 05:56:56 PM 29.5808 -95.6825 121° Southeast 300 345 8,400 -1,548 Descending Houston Center
Sun 05:57:37 PM 29.5542 -95.6311 121° Southeast 298 343 7,400 -1,800 Descending Houston Center
Sun 05:57:56 PM 29.5456 -95.5931 105° East 295 339 6,600 -1,935 Descending Houston Center
Sun 05:58:39 PM 29.5442 -95.5406 92° East 294 338 5,400 -2,000 Descending Houston Center
Sun 05:58:59 PM 29.5433 -95.4994 91° East 292 336 4,500 -1,839 Descending Houston Center
Sun 05:59:41 PM 29.5414 -95.4486 93° East 291 335 3,500 -1,574 Descending Houston Center
Sun 06:00:00 PM 29.5439 -95.4131 85° East 263 303 2,900 -1,161 Descending Houston Center
Sun 06:00:43 PM 29.5581 -95.3725 68° East 269 310 2,300 -716 Descending Houston Center
Sun 06:01:07 PM 29.5839 -95.3458 42° Northeast 191 220 2,100 -1,065 Descending Houston Center
Sun 06:01:45 PM 29.6044 -95.3242 43° Northeast 211 243 1,200 -1,286 Descending Houston Center
Sun 06:02:03 PM 29.6144 -95.3133 43° Northeast 151 174 900 -968 Descending Houston Center
Sun 06:02:47 PM 29.6344 -95.2911 44° Northeast 172 198 200 -453 Descending Houston Center
Sun 06:03:49 PM 29.6636 -95.2578 45° Northeast 168 193 100 -97 Descending Houston Center
Sun 06:05:00 PM 29.6333 -95.2667 221° Southwest  Level FlightAware Approximate

Login

Don't have an account? Register now (free) for customized features, flight alerts, and more!